createdAt,value
2023-02-14T00:00:54.893Z,15.10
2023-02-14T00:04:00.596Z,14.63
2023-02-14T00:07:03.558Z,15.97
2023-02-14T00:10:09.475Z,14.13
2023-02-14T00:13:12.403Z,15.07
2023-02-14T00:16:14.545Z,15.30
2023-02-14T00:19:19.303Z,15.83
2023-02-14T00:22:22.250Z,13.93
2023-02-14T00:25:26.671Z,14.93
2023-02-14T00:28:29.633Z,15.77
2023-02-14T00:31:33.017Z,15.53
2023-02-14T00:34:36.480Z,15.40
2023-02-14T00:37:39.497Z,15.23
2023-02-14T00:40:43.803Z,15.50
2023-02-14T00:43:47.564Z,14.27
2023-02-14T00:46:50.553Z,14.20
2023-02-14T00:49:53.571Z,14.23
2023-02-14T00:52:56.593Z,14.03
2023-02-14T00:56:00.939Z,14.70
2023-02-14T00:59:04.004Z,15.03
2023-02-14T01:02:06.965Z,15.10
2023-02-14T01:05:09.943Z,13.67
2023-02-14T01:08:12.900Z,14.93
2023-02-14T01:11:20.357Z,15.20
2023-02-14T01:14:23.309Z,14.67
2023-02-14T01:17:26.364Z,13.70
2023-02-14T01:20:29.453Z,14.40
2023-02-14T01:23:32.389Z,15.07
2023-02-14T01:26:37.074Z,15.50
2023-02-14T01:29:40.031Z,15.47
2023-02-14T01:32:43.248Z,15.10
2023-02-14T01:35:46.215Z,15.97
2023-02-14T01:38:51.558Z,14.67
2023-02-14T01:41:56.581Z,15.97
2023-02-14T01:45:03.426Z,15.23
2023-02-14T01:48:06.429Z,15.20
2023-02-14T01:51:09.510Z,15.50
2023-02-14T01:54:13.552Z,14.57
2023-02-14T01:57:20.198Z,15.27
2023-02-14T02:00:40.872Z,14.63
2023-02-14T02:03:48.158Z,14.80
2023-02-14T02:06:55.001Z,15.53
2023-02-14T02:10:01.555Z,15.60
2023-02-14T02:13:08.880Z,15.97
2023-02-14T02:16:36.403Z,16.33
2023-02-14T02:20:24.080Z,15.90
2023-02-14T02:23:59.943Z,15.57
2023-02-14T02:27:46.320Z,14.43
2023-02-14T02:31:27.811Z,16.13
2023-02-14T02:34:57.529Z,15.67
2023-02-14T02:38:12.901Z,15.50
2023-02-14T02:41:22.879Z,15.30
2023-02-14T02:44:35.090Z,14.00
2023-02-14T02:47:43.852Z,15.60
2023-02-14T02:51:08.193Z,16.07
2023-02-14T02:54:17.582Z,16.70
2023-02-14T02:57:26.720Z,15.93
2023-02-14T03:00:31.169Z,15.47
2023-02-14T03:03:53.788Z,15.57
2023-02-14T03:06:57.363Z,15.90
2023-02-14T03:10:03.831Z,15.97
2023-02-14T03:13:39.810Z,16.53
2023-02-14T03:17:00.896Z,16.23
2023-02-14T03:20:16.614Z,15.77
2023-02-14T03:23:24.452Z,17.13
2023-02-14T03:26:36.398Z,15.03
2023-02-14T03:29:50.671Z,16.03
2023-02-14T03:33:00.634Z,16.10
2023-02-14T03:36:09.804Z,16.40
2023-02-14T03:39:20.874Z,15.23
2023-02-14T03:42:28.472Z,17.70
2023-02-14T03:45:35.602Z,16.70
2023-02-14T03:48:41.174Z,16.93
2023-02-14T03:51:49.175Z,17.20
2023-02-14T03:54:55.716Z,16.87
2023-02-14T03:58:07.958Z,16.73
2023-02-14T04:01:15.768Z,16.30
2023-02-14T04:04:22.589Z,17.03
2023-02-14T04:07:25.946Z,16.63
2023-02-14T04:10:29.021Z,16.67
2023-02-14T04:13:33.646Z,16.90
2023-02-14T04:16:56.727Z,16.20
2023-02-14T04:19:58.815Z,17.60
2023-02-14T04:23:03.448Z,16.37
2023-02-14T04:26:06.758Z,16.97
2023-02-14T04:29:11.240Z,16.33
2023-02-14T04:32:16.298Z,17.13
2023-02-14T04:35:19.409Z,17.83
2023-02-14T04:38:22.418Z,16.20
2023-02-14T04:41:25.337Z,16.13
2023-02-14T04:44:29.667Z,17.20
2023-02-14T04:47:32.748Z,16.40
2023-02-14T04:50:35.706Z,17.10
2023-02-14T04:53:40.298Z,16.30
2023-02-14T04:56:43.562Z,15.60
2023-02-14T04:59:47.873Z,16.13
2023-02-14T05:02:51.030Z,18.17
2023-02-14T05:05:53.996Z,17.40
2023-02-14T05:08:57.114Z,17.63
2023-02-14T05:12:00.041Z,17.70
2023-02-14T05:15:04.674Z,15.43
2023-02-14T05:18:07.654Z,16.20
2023-02-14T05:21:10.807Z,17.10
2023-02-14T05:24:13.825Z,17.27
2023-02-14T05:27:16.950Z,18.23
2023-02-14T05:30:26.454Z,18.27
2023-02-14T05:33:29.908Z,16.67
2023-02-14T05:36:32.894Z,15.73
2023-02-14T05:39:35.818Z,16.83
2023-02-14T05:42:38.735Z,17.50
2023-02-14T05:45:43.060Z,17.43
2023-02-14T05:48:46.363Z,17.23
2023-02-14T05:51:49.290Z,17.30
2023-02-14T05:54:52.321Z,16.77
2023-02-14T05:57:55.348Z,15.03
2023-02-14T06:01:00.689Z,17.60
2023-02-14T06:04:03.957Z,16.90
2023-02-14T06:07:06.922Z,16.30
2023-02-14T06:10:10.957Z,16.23
2023-02-14T06:13:13.912Z,16.17
2023-02-14T06:16:18.307Z,15.87
2023-02-14T06:19:21.440Z,17.20
2023-02-14T06:22:24.354Z,17.87
2023-02-14T06:25:27.484Z,17.27
2023-02-14T06:28:30.408Z,16.23
2023-02-14T06:31:35.884Z,16.60
2023-02-14T06:34:39.855Z,15.53
2023-02-14T06:37:44.230Z,15.73
2023-02-14T06:40:47.253Z,15.13
2023-02-14T06:43:50.281Z,16.33
2023-02-14T06:46:54.562Z,16.03
2023-02-14T06:49:59.853Z,16.07
2023-02-14T06:53:02.807Z,16.00
2023-02-14T06:56:06.667Z,15.23
2023-02-14T06:59:09.625Z,15.67
2023-02-14T07:02:13.962Z,15.93
2023-02-14T07:05:18.875Z,16.10
2023-02-14T07:08:22.244Z,13.97
2023-02-14T07:11:25.774Z,14.83
2023-02-14T07:14:28.755Z,16.13
2023-02-14T07:17:33.034Z,15.70
2023-02-14T07:20:36.071Z,16.17
2023-02-14T07:23:38.989Z,16.30
2023-02-14T07:26:41.976Z,15.20
2023-02-14T07:29:45.196Z,16.50
2023-02-14T07:32:49.455Z,14.70
2023-02-14T07:35:52.393Z,15.80
2023-02-14T07:38:56.869Z,13.97
2023-02-14T07:41:59.860Z,14.63
2023-02-14T07:45:19.379Z,15.10
2023-02-14T07:48:25.266Z,14.17
2023-02-14T07:51:28.307Z,14.97
2023-02-14T07:54:31.428Z,14.80
2023-02-14T07:57:34.583Z,15.20
2023-02-14T08:00:37.532Z,14.07
2023-02-14T08:03:44.366Z,13.80
2023-02-14T08:06:47.324Z,13.97
2023-02-14T08:09:50.364Z,13.83
2023-02-14T08:13:03.472Z,14.23
2023-02-14T08:16:07.556Z,14.60
2023-02-14T08:19:12.136Z,13.77
2023-02-14T08:22:15.083Z,13.43
2023-02-14T08:25:19.418Z,12.83
2023-02-14T08:28:22.688Z,13.17
2023-02-14T08:31:35.035Z,14.77
2023-02-14T08:34:40.741Z,11.80
2023-02-14T08:37:43.729Z,12.20
2023-02-14T08:40:46.878Z,12.00
2023-02-14T08:43:50.623Z,11.83
2023-02-14T08:46:54.880Z,12.87
2023-02-14T08:49:59.209Z,11.97
2023-02-14T08:53:02.303Z,12.13
2023-02-14T08:56:06.105Z,12.87
2023-02-14T08:59:09.208Z,13.00
2023-02-14T09:02:13.874Z,12.63
2023-02-14T09:05:18.386Z,12.73
2023-02-14T09:08:21.816Z,11.80
2023-02-14T09:11:26.086Z,11.87
2023-02-14T09:14:31.830Z,11.03
2023-02-14T09:17:35.189Z,11.53
2023-02-14T09:20:39.737Z,12.50
2023-02-14T09:23:43.064Z,12.10
2023-02-14T09:26:46.406Z,12.40
2023-02-14T09:29:49.340Z,12.20
2023-02-14T09:32:53.425Z,11.93
2023-02-14T09:36:13.948Z,11.80
2023-02-14T09:39:17.079Z,12.43
2023-02-14T09:42:32.429Z,12.67
2023-02-14T09:45:36.010Z,12.33
2023-02-14T09:48:42.344Z,12.13
2023-02-14T09:51:51.230Z,11.37
2023-02-14T09:54:57.510Z,12.73
2023-02-14T09:58:08.744Z,13.57
2023-02-14T10:01:17.861Z,11.93
2023-02-14T10:04:29.631Z,12.50
2023-02-14T10:07:44.761Z,12.27
2023-02-14T10:10:54.102Z,12.43
2023-02-14T10:14:02.696Z,12.47
2023-02-14T10:17:10.896Z,13.17
2023-02-14T10:20:23.149Z,12.67
2023-02-14T10:23:32.849Z,13.10
2023-02-14T10:26:38.740Z,11.80
2023-02-14T10:29:42.784Z,13.23
2023-02-14T10:32:48.681Z,12.60
2023-02-14T10:35:58.721Z,13.53
2023-02-14T10:39:17.828Z,12.97
2023-02-14T10:42:30.590Z,12.17
2023-02-14T10:45:41.736Z,12.50
2023-02-14T10:48:57.621Z,12.47
2023-02-14T10:52:08.048Z,13.27
2023-02-14T10:55:31.540Z,12.67
2023-02-14T10:58:40.731Z,12.93
2023-02-14T11:01:44.754Z,13.33
2023-02-14T11:04:48.563Z,13.50
2023-02-14T11:07:51.894Z,12.90
2023-02-14T11:11:01.857Z,12.73
2023-02-14T11:14:24.147Z,13.13
2023-02-14T11:17:30.182Z,13.60
2023-02-14T11:20:33.188Z,12.83
2023-02-14T11:23:38.703Z,13.37
2023-02-14T11:26:48.280Z,12.33
2023-02-14T11:29:53.014Z,13.67
2023-02-14T11:32:56.418Z,13.47
2023-02-14T11:36:00.650Z,14.20
2023-02-14T11:39:08.730Z,14.40
2023-02-14T11:42:13.847Z,13.93
2023-02-14T11:45:33.860Z,14.30
2023-02-14T11:48:38.999Z,12.90
2023-02-14T11:51:46.247Z,14.47
2023-02-14T11:54:50.205Z,14.40
2023-02-14T11:57:56.090Z,13.17
2023-02-14T12:01:00.053Z,14.23
2023-02-14T12:04:07.427Z,13.73
2023-02-14T12:07:20.024Z,13.87
2023-02-14T12:10:26.267Z,14.00
2023-02-14T12:13:33.396Z,13.40
2023-02-14T12:16:43.968Z,14.47
2023-02-14T12:19:52.703Z,13.87
2023-02-14T12:23:02.320Z,13.80
2023-02-14T12:26:13.877Z,13.90
2023-02-14T12:29:26.187Z,13.57
2023-02-14T12:32:31.047Z,12.93
2023-02-14T12:35:44.371Z,13.63
2023-02-14T12:38:56.768Z,11.70
2023-02-14T12:42:12.662Z,13.20
2023-02-14T12:45:26.170Z,12.27
2023-02-14T12:48:42.135Z,13.20
2023-02-14T12:51:51.073Z,12.07
2023-02-14T12:55:12.441Z,12.43
2023-02-14T12:58:28.859Z,14.10
2023-02-14T13:02:00.424Z,14.07
2023-02-14T13:05:13.985Z,13.10
2023-02-14T13:08:28.337Z,13.27
2023-02-14T13:11:40.628Z,11.53
2023-02-14T13:14:58.042Z,12.33
2023-02-14T13:18:12.011Z,11.73
2023-02-14T13:21:18.638Z,13.50
2023-02-14T13:24:25.506Z,12.73
2023-02-14T13:27:32.981Z,13.00
2023-02-14T13:30:38.599Z,12.80
2023-02-14T13:33:49.648Z,12.70
2023-02-14T13:36:53.311Z,13.27
2023-02-14T13:39:59.177Z,12.07
2023-02-14T13:43:02.818Z,12.03
2023-02-14T13:46:06.775Z,12.03
2023-02-14T13:49:26.078Z,12.40
2023-02-14T13:52:42.913Z,11.63
2023-02-14T13:55:48.776Z,11.80
2023-02-14T13:58:54.302Z,11.57
2023-02-14T14:02:17.492Z,12.23
2023-02-14T14:05:53.985Z,11.13
2023-02-14T14:08:58.394Z,10.67
2023-02-14T14:12:01.591Z,11.57
2023-02-14T14:15:16.794Z,11.50
2023-02-14T14:18:39.975Z,11.73
2023-02-14T14:21:44.583Z,12.53
2023-02-14T14:25:00.555Z,12.47
2023-02-14T14:28:11.201Z,11.60
2023-02-14T14:31:15.064Z,12.03
2023-02-14T14:34:20.340Z,12.07
2023-02-14T14:37:26.057Z,13.40
2023-02-14T14:40:32.506Z,12.47
2023-02-14T14:43:37.277Z,13.50
2023-02-14T14:46:40.260Z,13.03
2023-02-14T14:49:43.236Z,12.80
2023-02-14T14:52:49.125Z,12.57
2023-02-14T14:55:54.817Z,12.03
2023-02-14T14:58:58.769Z,12.53
2023-02-14T15:02:02.086Z,12.87
2023-02-14T15:05:26.143Z,12.13
2023-02-14T15:08:33.828Z,11.70
2023-02-14T15:11:56.432Z,12.60
2023-02-14T15:14:59.522Z,12.17
2023-02-14T15:18:06.467Z,11.53
2023-02-14T15:21:09.625Z,12.07
2023-02-14T15:24:17.213Z,11.93
2023-02-14T15:27:23.371Z,11.80
2023-02-14T15:30:33.801Z,12.17
2023-02-14T15:33:37.624Z,12.67
2023-02-14T15:36:52.148Z,11.73
2023-02-14T15:39:57.092Z,11.30
2023-02-14T15:43:14.615Z,11.43
2023-02-14T15:46:27.272Z,11.20
2023-02-14T15:49:35.505Z,10.70
2023-02-14T15:52:41.247Z,11.47
2023-02-14T15:55:44.636Z,11.73
2023-02-14T15:58:49.702Z,11.20
2023-02-14T16:01:55.709Z,11.60
2023-02-14T16:05:05.466Z,11.53
2023-02-14T16:08:26.504Z,10.90
2023-02-14T16:11:32.305Z,9.93
2023-02-14T16:14:40.940Z,10.87
2023-02-14T16:17:45.307Z,10.50
2023-02-14T16:20:51.172Z,11.27
2023-02-14T16:24:13.462Z,10.67
2023-02-14T16:27:16.429Z,11.63
2023-02-14T16:30:21.742Z,10.47
2023-02-14T16:33:27.948Z,11.50
2023-02-14T16:36:32.608Z,10.80
2023-02-14T16:39:36.316Z,11.03
2023-02-14T16:42:40.475Z,10.70
2023-02-14T16:45:45.493Z,11.93
2023-02-14T16:48:52.016Z,9.83
2023-02-14T16:51:55.748Z,11.17
2023-02-14T16:54:58.770Z,10.57
2023-02-14T16:58:02.582Z,11.93
2023-02-14T17:01:07.028Z,11.67
2023-02-14T17:04:10.082Z,10.97
2023-02-14T17:07:15.453Z,12.00
2023-02-14T17:10:20.618Z,12.93
2023-02-14T17:13:27.664Z,12.33
2023-02-14T17:16:33.364Z,12.33
2023-02-14T17:19:36.411Z,12.20
2023-02-14T17:22:39.460Z,12.77
2023-02-14T17:25:42.462Z,12.50
2023-02-14T17:28:46.391Z,13.13
2023-02-14T17:31:50.795Z,12.90
2023-02-14T17:34:54.025Z,13.67
2023-02-14T17:37:57.006Z,13.43
2023-02-14T17:41:00.270Z,13.33
2023-02-14T17:44:05.579Z,12.90
2023-02-14T17:47:09.911Z,13.10
2023-02-14T17:50:14.614Z,13.30
2023-02-14T17:53:18.776Z,13.20
2023-02-14T17:56:23.822Z,12.67
2023-02-14T17:59:26.784Z,12.87
2023-02-14T18:02:31.137Z,13.70
2023-02-14T18:05:37.149Z,13.43
2023-02-14T18:08:43.240Z,13.20
2023-02-14T18:11:46.705Z,14.13
2023-02-14T18:14:50.316Z,13.10
2023-02-14T18:17:54.597Z,13.37
2023-02-14T18:20:59.225Z,13.60
2023-02-14T18:24:02.417Z,13.80
2023-02-14T18:27:06.025Z,12.40
2023-02-14T18:30:10.822Z,13.90
2023-02-14T18:33:15.527Z,13.33
2023-02-14T18:36:20.909Z,13.33
2023-02-14T18:39:23.862Z,13.00
2023-02-14T18:42:26.840Z,14.17
2023-02-14T18:45:29.934Z,12.70
2023-02-14T18:48:34.676Z,12.67
2023-02-14T18:51:39.652Z,13.00
2023-02-14T18:54:42.704Z,13.67
2023-02-14T18:57:45.702Z,13.80
2023-02-14T19:00:48.721Z,13.30
2023-02-14T19:03:54.546Z,13.23
2023-02-14T19:06:57.551Z,13.77
2023-02-14T19:10:01.638Z,13.17
2023-02-14T19:13:04.587Z,13.43
2023-02-14T19:16:12.273Z,13.83
2023-02-14T19:19:16.757Z,13.87
2023-02-14T19:22:19.875Z,13.87
2023-02-14T19:25:22.807Z,15.53
2023-02-14T19:28:26.174Z,14.47
2023-02-14T19:31:29.682Z,15.03
2023-02-14T19:34:34.675Z,14.10
2023-02-14T19:37:37.689Z,14.67
2023-02-14T19:40:44.984Z,14.73
2023-02-14T19:43:49.101Z,14.90
2023-02-14T19:46:54.249Z,15.83
2023-02-14T19:49:58.616Z,15.87
2023-02-14T19:53:01.688Z,14.33
2023-02-14T19:56:04.795Z,15.33
2023-02-14T19:59:09.158Z,15.07
2023-02-14T20:02:15.685Z,14.97
2023-02-14T20:05:21.023Z,16.20
2023-02-14T20:08:23.984Z,16.23
2023-02-14T20:11:31.507Z,15.93
2023-02-14T20:14:50.280Z,15.50
2023-02-14T20:17:54.449Z,15.60
2023-02-14T20:21:04.892Z,15.60
2023-02-14T20:24:08.610Z,16.67
2023-02-14T20:27:11.876Z,15.93
2023-02-14T20:30:15.551Z,17.17
2023-02-14T20:33:18.620Z,16.90
2023-02-14T20:36:23.357Z,17.10
2023-02-14T20:39:29.908Z,17.50
2023-02-14T20:42:32.848Z,17.83
2023-02-14T20:45:35.891Z,18.03
2023-02-14T20:48:38.842Z,17.80
2023-02-14T20:51:43.296Z,17.70
2023-02-14T20:54:46.504Z,18.77
2023-02-14T20:57:49.486Z,18.03
2023-02-14T21:00:52.419Z,18.03
2023-02-14T21:03:55.508Z,18.33
2023-02-14T21:07:03.972Z,19.57
2023-02-14T21:10:08.223Z,18.53
2023-02-14T21:13:11.172Z,17.23
2023-02-14T21:16:16.645Z,18.13
2023-02-14T21:19:19.806Z,19.50
2023-02-14T21:22:24.429Z,18.70
2023-02-14T21:25:27.350Z,18.73
2023-02-14T21:28:30.500Z,19.53
2023-02-14T21:31:33.871Z,18.40
2023-02-14T21:34:36.917Z,18.67
2023-02-14T21:37:41.212Z,19.47
2023-02-14T21:40:44.158Z,19.50
2023-02-14T21:43:48.570Z,19.90
2023-02-14T21:46:51.511Z,20.23
2023-02-14T21:50:11.900Z,19.97
2023-02-14T21:53:16.203Z,20.43
2023-02-14T21:56:22.292Z,20.87
2023-02-14T21:59:25.425Z,19.83
2023-02-14T22:02:28.417Z,19.70
2023-02-14T22:05:31.396Z,19.63
2023-02-14T22:08:35.856Z,20.23
2023-02-14T22:11:38.854Z,20.60
2023-02-14T22:14:41.792Z,21.73
2023-02-14T22:17:45.010Z,20.13
2023-02-14T22:20:47.955Z,19.70
2023-02-14T22:23:52.368Z,21.17
2023-02-14T22:26:55.357Z,21.50
2023-02-14T22:29:58.421Z,21.33
2023-02-14T22:33:01.397Z,21.07
2023-02-14T22:36:04.769Z,21.10
2023-02-14T22:39:09.398Z,21.10
2023-02-14T22:42:12.389Z,20.80
2023-02-14T22:45:15.550Z,23.07
2023-02-14T22:48:18.733Z,24.10
2023-02-14T22:51:25.462Z,22.70
2023-02-14T22:54:30.375Z,23.17
2023-02-14T22:57:33.416Z,24.07
2023-02-14T23:00:36.387Z,22.73
2023-02-14T23:03:39.331Z,21.13
2023-02-14T23:06:42.299Z,20.63
2023-02-14T23:09:46.570Z,20.67
2023-02-14T23:13:07.121Z,19.53
2023-02-14T23:16:28.125Z,19.50
2023-02-14T23:19:50.062Z,19.23
2023-02-14T23:22:52.991Z,18.80
2023-02-14T23:25:57.306Z,19.43
2023-02-14T23:29:00.471Z,19.40
2023-02-14T23:32:03.768Z,20.30
2023-02-14T23:35:07.287Z,19.27
2023-02-14T23:38:10.260Z,19.37
2023-02-14T23:41:32.297Z,19.67
2023-02-14T23:44:36.248Z,19.77
2023-02-14T23:47:39.167Z,21.17
2023-02-14T23:50:42.301Z,19.87
2023-02-14T23:53:45.206Z,20.00
2023-02-14T23:56:49.550Z,20.47
2023-02-14T23:59:52.961Z,20.67
